Time;durP1;ratioP1;P1;durP2;ratioP2;P2;SDS_P1;SDS_P2;PMS_P1;PMS_P2;Temp;Humidity;BMP_temperature;BMP_pressure;BME280_temperature;BME280_humidity;BME280_pressure;Samples;Min_cycle;Max_cycle;Signal;HPM_P1;HPM_P2
2021/12/31 00:02:21;;;;;;;5.20;3.17;;;7.90;99.90;;;;;;5102301;28;20204;-61
2021/12/31 00:04:49;;;;;;;5.00;3.70;;;7.90;99.90;;;;;;5107640;28;20200;-61
2021/12/31 00:07:16;;;;;;;5.70;3.97;;;7.80;99.90;;;;;;5101617;28;20192;-61
2021/12/31 00:09:45;;;;;;;5.40;3.70;;;7.80;99.90;;;;;;5106195;28;20200;-62
2021/12/31 00:12:13;;;;;;;4.27;3.40;;;7.90;99.90;;;;;;5099480;28;20753;-61
2021/12/31 00:14:40;;;;;;;3.33;2.67;;;7.90;99.90;;;;;;5105368;28;20298;-61
2021/12/31 00:17:07;;;;;;;4.90;3.90;;;7.90;99.90;;;;;;5092597;28;20200;-61
2021/12/31 00:19:39;;;;;;;3.97;3.50;;;8.00;99.90;;;;;;5104721;28;20261;-61
2021/12/31 00:22:28;;;;;;;3.43;3.13;;;8.00;99.90;;;;;;5093286;28;20559;-61
2021/12/31 00:24:57;;;;;;;3.63;3.20;;;8.10;99.90;;;;;;5098991;28;20189;-61
2021/12/31 00:27:24;;;;;;;2.57;2.23;;;8.10;99.90;;;;;;5102796;28;20192;-61
2021/12/31 00:29:52;;;;;;;3.23;2.93;;;8.10;99.90;;;;;;5093271;28;20208;-61
2021/12/31 00:32:20;;;;;;;3.27;2.50;;;8.10;99.90;;;;;;5104417;28;20214;-61
2021/12/31 00:34:47;;;;;;;2.70;2.47;;;8.20;99.90;;;;;;5092982;28;20219;-62
2021/12/31 00:37:25;;;;;;;2.77;2.27;;;8.20;99.90;;;;;;5085220;28;20256;-60
2021/12/31 00:39:52;;;;;;;2.50;2.10;;;8.20;99.90;;;;;;5110518;28;20188;-61
2021/12/31 00:42:21;;;;;;;3.83;2.40;;;8.30;99.90;;;;;;5109204;28;20199;-61
2021/12/31 00:44:48;;;;;;;2.00;1.90;;;8.30;99.90;;;;;;5099911;28;20291;-61
2021/12/31 00:47:15;;;;;;;2.40;2.20;;;8.40;99.90;;;;;;5108435;28;20235;-60
2021/12/31 00:49:43;;;;;;;1.90;1.70;;;8.40;99.90;;;;;;5099648;28;20195;-61
2021/12/31 00:52:10;;;;;;;2.10;1.53;;;8.40;99.90;;;;;;5098378;28;20738;-61
2021/12/31 00:54:38;;;;;;;2.77;1.63;;;8.50;99.90;;;;;;5088173;28;20319;-61
2021/12/31 00:57:06;;;;;;;1.50;1.40;;;8.50;99.90;;;;;;5104341;28;20546;-61
2021/12/31 00:59:36;;;;;;;1.50;1.40;;;8.50;99.90;;;;;;5080974;28;20679;-60
2021/12/31 01:02:05;;;;;;;2.50;1.80;;;8.50;99.90;;;;;;5104501;28;20371;-61
2021/12/31 01:04:33;;;;;;;1.60;1.50;;;8.60;99.90;;;;;;5111979;27;20195;-62
2021/12/31 01:07:02;;;;;;;1.50;1.40;;;8.60;99.90;;;;;;5106738;28;20533;-61
2021/12/31 01:09:29;;;;;;;2.80;1.63;;;8.70;99.90;;;;;;5103188;28;20200;-62
2021/12/31 01:11:57;;;;;;;1.37;1.27;;;8.70;99.90;;;;;;5103201;28;20196;-61
2021/12/31 01:14:30;;;;;;;1.17;1.07;;;8.70;99.90;;;;;;5099103;28;20216;-61
2021/12/31 01:17:02;;;;;;;2.37;1.40;;;8.80;99.90;;;;;;5096574;28;20196;-62
2021/12/31 01:19:46;;;;;;;1.10;1.07;;;8.80;99.90;;;;;;5091809;28;20245;-62
2021/12/31 01:22:14;;;;;;;2.03;1.00;;;8.80;99.90;;;;;;5095254;28;20192;-61
2021/12/31 01:24:42;;;;;;;0.93;0.93;;;8.80;99.90;;;;;;5098737;28;20223;-61
2021/12/31 01:27:09;;;;;;;1.27;1.17;;;8.90;99.90;;;;;;5107890;28;20202;-61
2021/12/31 01:29:36;;;;;;;2.30;1.53;;;8.90;99.90;;;;;;5091971;28;20231;-61
2021/12/31 01:32:06;;;;;;;2.27;1.27;;;8.90;99.90;;;;;;5091768;28;20231;-62
2021/12/31 01:34:33;;;;;;;2.83;1.03;;;8.90;99.90;;;;;;5106109;28;20647;-62
2021/12/31 01:37:00;;;;;;;1.73;1.10;;;8.90;99.90;;;;;;5091727;28;20201;-61
2021/12/31 01:39:27;;;;;;;1.10;1.00;;;9.00;99.90;;;;;;5093254;28;20196;-61
2021/12/31 01:41:57;;;;;;;0.90;0.90;;;9.00;99.90;;;;;;5101698;28;20206;-62
2021/12/31 01:44:28;;;;;;;1.10;1.03;;;8.90;99.90;;;;;;5110219;28;20609;-61
2021/12/31 01:46:56;;;;;;;0.93;0.93;;;9.00;99.90;;;;;;5107269;28;20233;-60
2021/12/31 01:49:32;;;;;;;1.10;1.10;;;9.00;99.90;;;;;;5110333;28;20210;-61
2021/12/31 01:51:59;;;;;;;0.90;0.90;;;9.00;99.90;;;;;;5103224;28;20188;-60
2021/12/31 01:54:26;;;;;;;1.17;1.07;;;9.00;99.90;;;;;;5111921;28;20260;-61
2021/12/31 01:56:55;;;;;;;1.17;1.10;;;9.00;99.90;;;;;;5109732;28;20214;-61
2021/12/31 01:59:22;;;;;;;1.27;1.20;;;9.10;99.90;;;;;;5114479;28;20659;-61
2021/12/31 02:01:51;;;;;;;1.60;1.17;;;9.10;99.90;;;;;;5107269;28;20638;-60
2021/12/31 02:04:18;;;;;;;1.00;1.00;;;9.10;99.90;;;;;;5113470;28;20203;-61
2021/12/31 02:06:46;;;;;;;1.40;1.30;;;9.10;99.90;;;;;;5114425;28;20192;-61
2021/12/31 02:09:14;;;;;;;1.20;1.10;;;9.10;99.90;;;;;;5110349;28;20261;-61
2021/12/31 02:11:41;;;;;;;0.90;0.90;;;9.20;99.90;;;;;;5109259;28;20389;-61
2021/12/31 02:14:09;;;;;;;1.20;1.10;;;9.20;99.90;;;;;;5094006;28;20211;-61
2021/12/31 02:16:37;;;;;;;1.00;1.00;;;9.20;99.90;;;;;;5113192;27;20290;-61
2021/12/31 02:19:12;;;;;;;1.00;1.00;;;9.20;99.90;;;;;;5109596;28;20519;-62
2021/12/31 02:21:44;;;;;;;1.17;1.07;;;9.20;99.90;;;;;;5104454;28;20208;-61
2021/12/31 02:24:12;;;;;;;0.70;0.70;;;9.30;99.90;;;;;;5101109;28;20329;-62
2021/12/31 02:26:39;;;;;;;0.80;0.80;;;9.30;99.90;;;;;;5110749;28;20187;-62
2021/12/31 02:29:06;;;;;;;1.13;1.00;;;9.30;99.90;;;;;;5095861;28;20206;-63
2021/12/31 02:31:34;;;;;;;1.50;1.00;;;9.30;99.90;;;;;;5106952;28;20603;-61
2021/12/31 02:34:01;;;;;;;0.77;0.77;;;9.30;99.90;;;;;;5078121;28;20200;-61
2021/12/31 02:36:28;;;;;;;0.87;0.80;;;9.30;99.90;;;;;;5095914;28;20208;-61
2021/12/31 02:38:56;;;;;;;3.27;0.93;;;9.30;99.90;;;;;;5096214;28;20193;-61
2021/12/31 02:41:23;;;;;;;0.77;0.77;;;9.40;99.90;;;;;;5094430;28;20206;-61
2021/12/31 02:43:51;;;;;;;0.80;0.80;;;9.40;99.90;;;;;;5087156;28;20195;-61
2021/12/31 02:46:18;;;;;;;0.70;0.70;;;9.40;99.90;;;;;;5096941;28;20193;-61
2021/12/31 02:48:47;;;;;;;0.73;0.73;;;9.50;99.90;;;;;;5097695;28;20606;-61
2021/12/31 02:51:14;;;;;;;1.03;0.80;;;9.50;99.90;;;;;;5107897;28;20229;-61
2021/12/31 02:53:44;;;;;;;1.00;0.90;;;9.50;99.90;;;;;;5100076;28;20216;-62
2021/12/31 02:56:16;;;;;;;1.00;0.90;;;9.60;99.90;;;;;;5088059;28;20225;-61
2021/12/31 02:58:44;;;;;;;0.90;0.90;;;9.60;99.90;;;;;;5112942;28;20275;-62
2021/12/31 03:01:12;;;;;;;0.87;0.87;;;9.60;99.90;;;;;;5106475;28;20201;-61
2021/12/31 03:03:41;;;;;;;1.00;1.00;;;9.60;99.90;;;;;;5099459;28;20273;-62
2021/12/31 03:06:10;;;;;;;0.90;0.90;;;9.60;99.90;;;;;;5114950;27;20257;-61
2021/12/31 03:08:42;;;;;;;1.40;1.10;;;9.60;99.90;;;;;;5101489;28;20312;-61
2021/12/31 03:11:09;;;;;;;1.17;1.00;;;9.60;99.90;;;;;;5092288;28;20206;-61
2021/12/31 03:13:40;;;;;;;1.10;0.83;;;9.60;99.90;;;;;;5105865;28;20230;-62
2021/12/31 03:16:08;;;;;;;0.73;0.73;;;9.70;99.90;;;;;;5098998;28;20211;-62
2021/12/31 03:18:36;;;;;;;1.33;1.23;;;9.70;99.90;;;;;;5100735;28;20201;-61
2021/12/31 03:21:09;;;;;;;1.10;1.00;;;9.70;99.90;;;;;;5105404;28;20580;-61
2021/12/31 03:23:36;;;;;;;1.00;1.00;;;9.70;99.90;;;;;;5100526;28;20586;-60
2021/12/31 03:26:04;;;;;;;1.57;0.80;;;9.70;99.90;;;;;;5102489;28;20599;-60
2021/12/31 03:28:31;;;;;;;1.13;1.03;;;9.70;99.90;;;;;;5095465;28;20192;-61
2021/12/31 03:30:59;;;;;;;0.87;0.87;;;9.70;99.90;;;;;;5107039;28;20196;-61
2021/12/31 03:33:26;;;;;;;1.43;1.07;;;9.70;99.90;;;;;;5108033;27;20196;-61
2021/12/31 03:35:54;;;;;;;0.90;0.90;;;9.70;99.90;;;;;;5095131;28;20254;-61
2021/12/31 03:38:21;;;;;;;0.87;0.87;;;9.80;99.90;;;;;;5094829;28;20203;-61
2021/12/31 03:40:48;;;;;;;0.90;0.90;;;9.80;99.90;;;;;;5075361;28;20579;-61
2021/12/31 03:43:15;;;;;;;1.20;1.10;;;9.80;99.90;;;;;;5100340;28;20198;-60
2021/12/31 03:45:44;;;;;;;0.80;0.80;;;9.80;99.90;;;;;;5106916;28;20234;-60
2021/12/31 03:48:12;;;;;;;1.93;1.20;;;9.80;99.90;;;;;;5111057;28;20220;-60
2021/12/31 03:50:39;;;;;;;1.03;0.93;;;9.80;99.90;;;;;;5088654;28;20792;-61
2021/12/31 03:53:06;;;;;;;0.80;0.80;;;9.90;99.90;;;;;;5103374;28;20248;-66
2021/12/31 03:55:34;;;;;;;0.60;0.60;;;9.90;99.90;;;;;;5098006;28;20315;-61
2021/12/31 03:58:01;;;;;;;0.70;0.70;;;9.90;99.90;;;;;;5098942;28;20191;-62
2021/12/31 04:00:29;;;;;;;1.20;1.10;;;9.90;99.90;;;;;;5102530;28;20586;-61
2021/12/31 04:02:57;;;;;;;0.97;0.80;;;9.90;99.90;;;;;;5090828;28;20206;-61
2021/12/31 04:05:26;;;;;;;1.37;1.20;;;9.90;99.90;;;;;;5115325;27;20258;-62
2021/12/31 04:07:53;;;;;;;1.27;1.23;;;9.90;99.90;;;;;;5112369;28;20196;-61
2021/12/31 04:10:23;;;;;;;1.30;1.20;;;9.90;99.90;;;;;;5106668;28;20198;-61
2021/12/31 04:12:50;;;;;;;1.37;1.27;;;9.90;99.90;;;;;;5107317;28;20248;-61
2021/12/31 04:15:17;;;;;;;1.23;1.13;;;9.90;99.90;;;;;;5098536;28;20241;-61
2021/12/31 04:17:44;;;;;;;1.47;1.30;;;9.90;99.90;;;;;;5100825;28;20282;-62
2021/12/31 04:20:18;;;;;;;1.50;1.40;;;9.90;99.90;;;;;;5104699;28;20205;-61
2021/12/31 04:22:52;;;;;;;1.40;1.30;;;9.90;99.90;;;;;;5107073;28;20237;-61
2021/12/31 04:25:19;;;;;;;1.17;1.00;;;9.90;99.90;;;;;;5098970;28;20245;-61
2021/12/31 04:27:46;;;;;;;1.27;1.13;;;9.90;99.90;;;;;;5110551;28;20223;-61
2021/12/31 04:30:14;;;;;;;1.67;1.20;;;10.00;99.90;;;;;;5096564;28;20191;-60
2021/12/31 04:32:42;;;;;;;0.90;0.90;;;10.00;99.90;;;;;;5076989;28;20256;-60
2021/12/31 04:35:11;;;;;;;0.83;0.83;;;10.00;99.90;;;;;;5099149;28;20278;-61
2021/12/31 04:37:39;;;;;;;1.20;1.10;;;10.00;99.90;;;;;;5105401;28;20627;-61
2021/12/31 04:40:10;;;;;;;1.13;1.00;;;10.00;99.90;;;;;;5091909;28;20314;-61
2021/12/31 04:42:39;;;;;;;1.37;1.03;;;10.00;99.90;;;;;;5094285;28;20838;-61
2021/12/31 04:45:07;;;;;;;1.27;1.03;;;10.00;99.90;;;;;;5093384;28;20192;-61
2021/12/31 04:47:34;;;;;;;1.50;1.00;;;10.00;99.90;;;;;;5095562;28;20213;-61
2021/12/31 04:50:01;;;;;;;1.63;0.80;;;10.00;99.90;;;;;;5094741;28;20230;-61
2021/12/31 04:52:28;;;;;;;0.80;0.80;;;10.00;99.90;;;;;;5099774;28;20203;-61
2021/12/31 04:54:56;;;;;;;1.07;1.00;;;10.00;99.90;;;;;;5106471;28;20328;-61
2021/12/31 04:57:26;;;;;;;1.37;1.27;;;10.00;99.90;;;;;;5096566;28;20210;-61
2021/12/31 04:59:53;;;;;;;0.80;0.80;;;10.00;99.90;;;;;;5100616;28;20195;-61
2021/12/31 05:02:20;;;;;;;0.90;0.87;;;10.00;99.90;;;;;;5096838;28;20204;-61
2021/12/31 05:04:47;;;;;;;0.90;0.90;;;10.00;99.90;;;;;;5107255;28;20191;-62
2021/12/31 05:07:14;;;;;;;1.30;1.20;;;9.90;99.90;;;;;;5105513;28;20197;-62
2021/12/31 05:09:42;;;;;;;1.83;1.50;;;9.90;99.90;;;;;;5105279;28;20266;-61
2021/12/31 05:12:14;;;;;;;2.83;1.13;;;9.90;99.90;;;;;;5099595;28;20500;-61
2021/12/31 05:14:44;;;;;;;3.17;1.97;;;9.90;99.90;;;;;;5096994;28;20294;-61
2021/12/31 05:17:12;;;;;;;2.27;1.67;;;9.90;99.90;;;;;;5085177;28;20216;-60
2021/12/31 05:19:43;;;;;;;2.93;1.77;;;9.90;99.90;;;;;;5098985;28;20495;-61
2021/12/31 05:22:11;;;;;;;3.03;1.97;;;9.90;99.90;;;;;;5085786;28;20631;-60
2021/12/31 05:24:38;;;;;;;2.97;1.93;;;9.90;99.90;;;;;;5090838;28;20255;-61
2021/12/31 05:27:06;;;;;;;3.97;1.57;;;10.00;99.90;;;;;;5105666;28;20199;-61
2021/12/31 05:29:33;;;;;;;3.17;2.17;;;10.00;99.90;;;;;;5107604;28;20594;-61
2021/12/31 05:32:02;;;;;;;2.07;1.60;;;10.00;99.90;;;;;;5090943;28;20675;-61
2021/12/31 05:34:29;;;;;;;2.07;1.40;;;10.00;99.90;;;;;;5100965;28;20208;-62
2021/12/31 05:36:56;;;;;;;1.47;1.37;;;10.00;99.90;;;;;;5110482;28;20216;-60
2021/12/31 05:39:25;;;;;;;1.47;1.27;;;10.00;99.90;;;;;;5109096;28;20685;-61
2021/12/31 05:41:52;;;;;;;3.90;2.03;;;10.00;99.90;;;;;;5108277;28;20473;-60
2021/12/31 05:44:19;;;;;;;1.93;1.53;;;10.00;99.90;;;;;;5107934;28;20208;-62
2021/12/31 05:46:49;;;;;;;2.47;1.73;;;10.00;99.90;;;;;;5107671;28;20191;-61
2021/12/31 05:49:17;;;;;;;3.47;2.07;;;10.00;99.90;;;;;;5080108;28;20205;-62
2021/12/31 05:51:45;;;;;;;2.63;1.70;;;10.00;99.90;;;;;;5096600;28;20194;-61
2021/12/31 05:54:12;;;;;;;2.53;1.50;;;10.00;99.90;;;;;;5103628;28;20189;-62
2021/12/31 05:56:39;;;;;;;2.63;1.90;;;10.00;99.90;;;;;;5083875;28;20207;-61
2021/12/31 05:59:06;;;;;;;2.23;2.00;;;10.00;99.90;;;;;;5099362;28;20190;-62
2021/12/31 06:01:33;;;;;;;2.00;1.50;;;10.00;99.90;;;;;;5087693;28;20208;-61
2021/12/31 06:04:00;;;;;;;1.87;1.40;;;10.00;99.90;;;;;;5105368;28;20230;-61
2021/12/31 06:06:29;;;;;;;3.37;2.27;;;10.00;99.90;;;;;;5106182;28;20277;-61
2021/12/31 06:08:56;;;;;;;2.70;2.13;;;10.00;99.90;;;;;;5101664;28;20192;-61
2021/12/31 06:11:23;;;;;;;2.10;1.80;;;10.10;99.90;;;;;;5104017;28;20194;-61
2021/12/31 06:14:00;;;;;;;1.57;1.47;;;10.00;99.90;;;;;;5095079;28;20254;-61
2021/12/31 06:16:27;;;;;;;1.63;1.23;;;10.00;99.90;;;;;;5108511;28;20232;-61
2021/12/31 06:18:55;;;;;;;2.00;1.47;;;10.00;99.90;;;;;;5104948;28;20581;-61
2021/12/31 06:21:22;;;;;;;1.27;1.23;;;10.00;99.90;;;;;;5102636;28;20267;-61
2021/12/31 06:23:51;;;;;;;1.10;1.10;;;10.00;99.90;;;;;;5084498;28;20300;-61
2021/12/31 06:26:18;;;;;;;0.97;0.90;;;10.00;99.90;;;;;;5100735;28;20184;-61
2021/12/31 06:28:45;;;;;;;0.77;0.77;;;10.10;99.90;;;;;;5089895;28;20206;-60
2021/12/31 06:31:12;;;;;;;0.90;0.90;;;10.00;99.90;;;;;;5105494;28;20202;-61
2021/12/31 06:33:39;;;;;;;1.00;0.70;;;10.00;99.90;;;;;;5095393;28;20198;-61
2021/12/31 06:36:06;;;;;;;0.60;0.60;;;10.00;99.90;;;;;;5097783;28;20265;-60
2021/12/31 06:38:33;;;;;;;1.73;0.90;;;10.10;99.90;;;;;;5114398;28;20198;-61
2021/12/31 06:41:02;;;;;;;0.67;0.67;;;10.10;99.90;;;;;;5086943;28;20203;-61
2021/12/31 06:43:29;;;;;;;0.67;0.60;;;10.10;99.90;;;;;;5114386;28;20255;-61
2021/12/31 06:45:56;;;;;;;0.80;0.80;;;10.10;99.90;;;;;;5110497;28;20197;-61
2021/12/31 06:48:23;;;;;;;2.33;1.90;;;10.10;99.90;;;;;;5094406;28;20251;-60
2021/12/31 06:50:50;;;;;;;2.13;1.80;;;10.10;99.90;;;;;;5108413;28;20198;-60
2021/12/31 06:53:17;;;;;;;1.43;1.30;;;10.10;99.90;;;;;;5102903;28;20615;-61
2021/12/31 06:55:44;;;;;;;1.90;1.70;;;10.10;99.90;;;;;;5107816;28;20220;-61
2021/12/31 06:58:13;;;;;;;1.30;1.23;;;10.10;99.90;;;;;;5087126;28;20280;-61
2021/12/31 07:00:41;;;;;;;1.30;1.20;;;10.20;99.90;;;;;;5106254;28;20658;-60
2021/12/31 07:03:09;;;;;;;1.60;1.50;;;10.20;99.90;;;;;;5111016;28;20192;-60
2021/12/31 07:05:37;;;;;;;2.57;1.60;;;10.20;99.90;;;;;;5108408;28;20292;-60
2021/12/31 07:08:05;;;;;;;2.43;1.70;;;10.20;99.90;;;;;;5110487;28;20264;-61
2021/12/31 07:10:32;;;;;;;1.57;1.40;;;10.20;99.90;;;;;;5107282;28;20206;-62
2021/12/31 07:12:59;;;;;;;1.23;1.00;;;10.30;99.90;;;;;;5113787;28;20535;-61
2021/12/31 07:15:28;;;;;;;1.30;1.00;;;10.30;99.90;;;;;;5101278;28;20199;-62
2021/12/31 07:17:55;;;;;;;0.97;0.97;;;10.30;99.90;;;;;;5107943;28;20210;-60
2021/12/31 07:20:22;;;;;;;0.70;0.70;;;10.30;99.90;;;;;;5099358;28;20200;-60
2021/12/31 07:22:50;;;;;;;1.40;1.30;;;10.30;99.90;;;;;;5106833;28;20321;-60
2021/12/31 07:25:17;;;;;;;1.20;1.10;;;10.30;99.90;;;;;;5098781;28;20207;-61
2021/12/31 07:27:44;;;;;;;0.90;0.87;;;10.30;99.90;;;;;;5110630;28;20562;-61
2021/12/31 07:30:16;;;;;;;0.90;0.90;;;10.30;99.90;;;;;;5093713;28;20193;-61
2021/12/31 07:32:44;;;;;;;3.33;2.23;;;10.30;99.90;;;;;;5094226;28;20261;-61
2021/12/31 07:35:11;;;;;;;3.03;2.10;;;10.30;99.90;;;;;;5093878;28;20582;-61
2021/12/31 07:37:39;;;;;;;1.97;1.87;;;10.30;99.90;;;;;;5095154;28;20711;-62
2021/12/31 07:40:10;;;;;;;3.90;3.20;;;10.30;99.90;;;;;;5093719;28;20235;-58
2021/12/31 07:42:37;;;;;;;3.00;2.63;;;10.30;99.90;;;;;;5091097;28;20230;-60
2021/12/31 07:45:05;;;;;;;4.57;3.00;;;10.30;99.90;;;;;;5093552;28;20229;-60
2021/12/31 07:47:32;;;;;;;2.40;2.20;;;10.30;99.90;;;;;;5098550;28;20285;-61
2021/12/31 07:50:00;;;;;;;1.87;1.70;;;10.30;99.90;;;;;;5077414;28;20226;-61
2021/12/31 07:52:27;;;;;;;2.00;1.80;;;10.30;99.90;;;;;;5097961;28;20194;-61
2021/12/31 07:54:54;;;;;;;3.93;3.00;;;10.30;99.90;;;;;;5109072;28;20601;-60
2021/12/31 07:57:21;;;;;;;2.50;2.30;;;10.30;99.90;;;;;;5104405;28;20210;-60
2021/12/31 07:59:49;;;;;;;4.73;2.90;;;10.30;99.90;;;;;;5109689;28;20218;-60
2021/12/31 08:02:16;;;;;;;2.90;2.20;;;10.40;99.90;;;;;;5109325;28;20338;-60
2021/12/31 08:04:43;;;;;;;2.27;2.07;;;10.40;99.90;;;;;;5105440;28;20220;-62
2021/12/31 08:07:11;;;;;;;2.73;2.40;;;10.40;99.90;;;;;;5086036;28;20208;-62
2021/12/31 08:09:38;;;;;;;2.30;2.00;;;10.40;99.90;;;;;;5106687;28;20186;-60
2021/12/31 08:12:07;;;;;;;3.60;2.57;;;10.40;99.90;;;;;;5106003;28;20211;-60
2021/12/31 08:14:34;;;;;;;2.30;2.10;;;10.50;99.90;;;;;;5100516;28;20207;-61
2021/12/31 08:17:01;;;;;;;1.97;1.80;;;10.50;99.90;;;;;;5105836;27;20208;-62
2021/12/31 08:19:28;;;;;;;3.93;1.83;;;10.50;99.90;;;;;;5088914;28;20204;-62
2021/12/31 08:21:55;;;;;;;2.00;1.83;;;10.50;99.90;;;;;;5106326;28;20208;-62
2021/12/31 08:24:23;;;;;;;3.40;2.30;;;10.50;99.90;;;;;;5102615;28;20232;-62
2021/12/31 08:26:50;;;;;;;3.50;2.20;;;10.50;99.90;;;;;;5104925;28;20554;-62
2021/12/31 08:29:18;;;;;;;3.63;2.17;;;10.50;99.90;;;;;;5111962;28;20566;-62
2021/12/31 08:31:46;;;;;;;3.93;2.50;;;10.60;99.90;;;;;;5110850;28;20596;-61
2021/12/31 08:34:13;;;;;;;2.20;2.00;;;10.60;99.90;;;;;;5092237;28;20192;-61
2021/12/31 08:36:40;;;;;;;5.40;2.37;;;10.50;99.90;;;;;;5104010;28;20217;-61
2021/12/31 08:39:09;;;;;;;1.83;1.73;;;10.60;99.90;;;;;;5103760;28;20198;-61
2021/12/31 08:41:39;;;;;;;2.00;1.53;;;10.60;99.90;;;;;;5090917;28;20230;-61
2021/12/31 08:44:08;;;;;;;2.47;2.27;;;10.60;99.90;;;;;;5111512;28;20645;-60
2021/12/31 08:46:36;;;;;;;1.93;1.80;;;10.60;99.90;;;;;;5090801;28;20203;-61
2021/12/31 08:49:04;;;;;;;2.27;1.93;;;10.60;99.90;;;;;;5091581;28;20207;-61
2021/12/31 08:51:31;;;;;;;2.23;2.10;;;10.60;99.90;;;;;;5104252;28;20622;-62
2021/12/31 08:53:58;;;;;;;2.63;2.20;;;10.60;99.90;;;;;;5088066;28;20203;-62
2021/12/31 08:56:25;;;;;;;2.97;2.63;;;10.60;99.90;;;;;;5105833;28;20199;-61
2021/12/31 08:58:54;;;;;;;4.17;2.60;;;10.60;99.90;;;;;;5107909;28;20202;-61
2021/12/31 09:01:21;;;;;;;3.07;2.60;;;10.60;99.90;;;;;;5086797;28;20198;-61
2021/12/31 09:03:48;;;;;;;3.83;2.30;;;10.60;99.90;;;;;;5102777;28;20193;-61
2021/12/31 09:06:18;;;;;;;2.80;2.50;;;10.60;99.90;;;;;;5112211;27;20210;-61
2021/12/31 09:08:45;;;;;;;6.30;2.70;;;10.60;99.90;;;;;;5091188;28;20290;-62
2021/12/31 09:11:13;;;;;;;6.47;2.80;;;10.60;99.90;;;;;;5100407;28;20200;-60
2021/12/31 09:13:41;;;;;;;3.53;2.73;;;10.60;99.90;;;;;;5098660;28;20248;-61
2021/12/31 09:16:10;;;;;;;4.53;2.77;;;10.70;99.90;;;;;;5097152;28;20248;-61
2021/12/31 09:18:38;;;;;;;4.03;2.40;;;10.60;99.90;;;;;;5104785;28;20698;-60
2021/12/31 09:21:05;;;;;;;2.80;2.50;;;10.70;99.90;;;;;;5097572;28;20202;-60
2021/12/31 09:23:32;;;;;;;3.93;2.40;;;10.70;99.90;;;;;;5098261;28;20238;-60
2021/12/31 09:26:01;;;;;;;2.90;2.27;;;10.70;99.90;;;;;;5083273;28;20211;-60
2021/12/31 09:28:28;;;;;;;2.93;2.33;;;10.70;99.90;;;;;;5101596;28;20291;-62
2021/12/31 09:31:00;;;;;;;2.43;2.23;;;10.70;99.90;;;;;;5108281;28;20232;-62
2021/12/31 09:33:29;;;;;;;2.83;2.07;;;10.70;99.90;;;;;;5106541;28;20736;-61
2021/12/31 09:35:56;;;;;;;3.17;2.47;;;10.80;99.90;;;;;;5096267;28;20716;-61
2021/12/31 09:38:24;;;;;;;1.70;1.60;;;10.80;99.90;;;;;;5092499;28;20208;-62
2021/12/31 09:40:51;;;;;;;2.87;1.80;;;10.80;99.90;;;;;;5104424;28;20212;-62
2021/12/31 09:43:19;;;;;;;1.77;1.60;;;10.80;99.90;;;;;;5103985;28;20195;-61
2021/12/31 09:45:50;;;;;;;2.50;1.60;;;10.90;99.90;;;;;;5074206;28;20716;-62
2021/12/31 09:48:20;;;;;;;1.50;1.40;;;10.90;99.90;;;;;;5108210;28;20274;-62
2021/12/31 09:50:51;;;;;;;1.50;1.40;;;10.90;99.90;;;;;;5093096;28;20229;-62
2021/12/31 09:53:20;;;;;;;1.43;1.33;;;10.90;99.90;;;;;;5106891;28;20267;-60
2021/12/31 09:55:49;;;;;;;1.70;1.60;;;11.00;99.90;;;;;;5093848;28;20198;-64
2021/12/31 09:58:18;;;;;;;3.03;2.53;;;11.00;99.90;;;;;;5106072;28;20633;-61
2021/12/31 10:00:47;;;;;;;2.07;1.97;;;11.00;99.90;;;;;;5085545;28;20188;-62
2021/12/31 10:03:16;;;;;;;2.77;2.50;;;11.00;99.90;;;;;;5106208;28;20565;-62
2021/12/31 10:05:45;;;;;;;3.60;2.37;;;11.00;99.90;;;;;;5099498;28;20203;-62
2021/12/31 10:08:21;;;;;;;2.47;2.03;;;11.00;99.90;;;;;;5082104;28;20717;-61
2021/12/31 10:11:04;;;;;;;1.70;1.60;;;11.00;99.90;;;;;;5103235;28;20195;-61
2021/12/31 10:13:32;;;;;;;1.77;1.67;;;11.00;99.90;;;;;;5086173;28;20204;-61
2021/12/31 10:15:59;;;;;;;3.47;3.17;;;11.00;99.90;;;;;;5082357;28;20201;-62
2021/12/31 10:18:31;;;;;;;5.23;2.70;;;11.10;99.90;;;;;;5088645;28;20225;-61
2021/12/31 10:20:58;;;;;;;4.13;2.40;;;11.00;99.90;;;;;;5097722;28;20219;-61
2021/12/31 10:23:27;;;;;;;2.23;2.00;;;11.00;99.90;;;;;;5102737;28;20282;-62
2021/12/31 10:26:08;;;;;;;2.17;1.97;;;11.00;99.90;;;;;;5104471;28;20683;-61
2021/12/31 10:28:36;;;;;;;2.50;2.30;;;11.00;99.90;;;;;;5101664;28;20247;-61
2021/12/31 10:31:13;;;;;;;2.50;2.30;;;11.00;99.90;;;;;;5116117;27;20251;-61
2021/12/31 10:33:42;;;;;;;3.27;2.37;;;11.10;99.90;;;;;;5095986;28;20208;-61
2021/12/31 10:36:10;;;;;;;6.47;3.80;;;11.10;99.90;;;;;;5112045;28;20621;-61
2021/12/31 10:38:40;;;;;;;6.03;3.20;;;11.10;99.90;;;;;;5113439;28;20293;-61
2021/12/31 10:41:07;;;;;;;5.53;3.47;;;11.10;99.90;;;;;;5108928;28;20505;-62
2021/12/31 10:43:34;;;;;;;7.67;3.73;;;11.10;99.90;;;;;;5111274;28;20197;-62
2021/12/31 10:46:04;;;;;;;6.43;3.87;;;11.10;99.90;;;;;;5081167;28;20206;-62
2021/12/31 10:48:42;;;;;;;4.43;3.17;;;11.10;99.90;;;;;;5109738;28;20203;-60
2021/12/31 10:51:10;;;;;;;5.47;3.80;;;11.20;99.90;;;;;;5105470;28;20192;-60
2021/12/31 10:53:38;;;;;;;8.00;4.60;;;11.20;99.90;;;;;;5098524;28;20201;-61
2021/12/31 10:56:08;;;;;;;4.40;3.33;;;11.20;99.90;;;;;;5097905;28;20593;-61
2021/12/31 10:58:36;;;;;;;4.50;3.40;;;11.20;99.90;;;;;;5108618;28;20233;-61
2021/12/31 11:01:08;;;;;;;6.53;4.40;;;11.20;99.90;;;;;;5106961;27;20231;-61
2021/12/31 11:03:36;;;;;;;7.80;4.20;;;11.20;99.90;;;;;;5103135;28;20249;-61
2021/12/31 11:06:04;;;;;;;4.47;3.30;;;11.20;99.90;;;;;;5108170;27;20226;-61
2021/12/31 11:08:32;;;;;;;3.07;2.47;;;11.20;99.90;;;;;;5106477;28;20196;-61
2021/12/31 11:11:02;;;;;;;5.37;3.33;;;11.20;99.90;;;;;;5095382;28;20190;-61
2021/12/31 11:13:30;;;;;;;2.67;2.47;;;11.20;99.90;;;;;;5099070;28;20196;-61
2021/12/31 11:15:59;;;;;;;2.93;2.33;;;11.20;99.90;;;;;;5085076;28;20212;-60
2021/12/31 11:18:26;;;;;;;2.10;2.00;;;11.20;99.90;;;;;;5083779;28;20243;-61
2021/12/31 11:20:56;;;;;;;2.00;1.63;;;11.20;99.90;;;;;;5103900;28;20196;-60
2021/12/31 11:23:25;;;;;;;2.40;1.60;;;11.10;99.90;;;;;;5077502;28;20584;-61
2021/12/31 11:25:54;;;;;;;1.70;1.60;;;11.20;99.90;;;;;;5069229;28;20213;-60
2021/12/31 11:28:31;;;;;;;6.77;2.90;;;11.10;99.90;;;;;;5063950;28;20741;-61
2021/12/31 11:31:22;;;;;;;3.40;2.50;;;11.10;99.90;;;;;;5070930;28;20196;-61
2021/12/31 11:34:13;;;;;;;3.47;2.73;;;11.10;99.90;;;;;;5062487;28;20227;-62
2021/12/31 11:36:42;;;;;;;2.70;2.40;;;11.10;99.90;;;;;;5064611;28;20188;-61
2021/12/31 11:39:15;;;;;;;2.03;1.90;;;11.10;99.90;;;;;;5060179;28;20219;-61
2021/12/31 11:41:43;;;;;;;1.80;1.70;;;11.10;99.90;;;;;;5062318;28;20204;-61
2021/12/31 11:44:13;;;;;;;1.70;1.53;;;11.10;99.90;;;;;;5061421;28;20672;-62
2021/12/31 11:46:41;;;;;;;2.63;2.13;;;11.20;99.90;;;;;;5067103;28;20247;-61
2021/12/31 11:49:19;;;;;;;2.43;2.23;;;11.20;99.90;;;;;;5068259;28;20531;-61
2021/12/31 11:52:06;;;;;;;2.77;2.57;;;11.20;99.90;;;;;;5069529;28;20207;-61
2021/12/31 11:54:34;;;;;;;2.40;2.20;;;11.20;99.90;;;;;;5068746;28;20197;-61
2021/12/31 11:57:29;;;;;;;2.00;1.87;;;11.20;99.90;;;;;;5068904;28;20204;-61
2021/12/31 11:59:58;;;;;;;2.00;1.80;;;11.20;99.90;;;;;;5068563;28;20289;-65
2021/12/31 12:02:42;;;;;;;1.97;1.80;;;11.20;99.90;;;;;;5069858;28;20188;-61
2021/12/31 12:05:17;;;;;;;2.13;1.90;;;11.20;99.90;;;;;;5064610;28;20329;-61
2021/12/31 12:07:49;;;;;;;1.90;1.70;;;11.20;99.90;;;;;;5068119;28;20201;-60
2021/12/31 12:10:19;;;;;;;1.57;1.47;;;11.20;99.90;;;;;;5070806;28;20292;-61
2021/12/31 12:12:50;;;;;;;1.53;1.40;;;11.20;99.90;;;;;;5068895;28;20280;-61
2021/12/31 12:15:35;;;;;;;2.33;2.13;;;11.20;99.90;;;;;;5070510;28;20571;-60
2021/12/31 12:18:05;;;;;;;4.47;1.93;;;11.20;99.90;;;;;;5066390;28;20551;-60
2021/12/31 12:20:42;;;;;;;1.67;1.57;;;11.20;99.90;;;;;;5070831;28;20201;-62
2021/12/31 12:23:23;;;;;;;1.50;1.40;;;11.20;99.90;;;;;;5084410;28;20361;-61
2021/12/31 12:25:50;;;;;;;4.83;3.23;;;11.20;99.90;;;;;;5100331;28;20200;-62
2021/12/31 12:28:20;;;;;;;3.07;2.77;;;11.20;99.90;;;;;;5105586;28;20194;-61
2021/12/31 12:31:03;;;;;;;2.57;2.37;;;11.20;99.90;;;;;;5103117;28;20203;-60
2021/12/31 12:33:31;;;;;;;4.23;3.00;;;11.20;99.90;;;;;;5080305;28;20298;-61
2021/12/31 12:36:01;;;;;;;3.27;2.57;;;11.30;99.90;;;;;;5106855;28;20257;-61
2021/12/31 12:38:33;;;;;;;5.17;3.63;;;11.20;99.90;;;;;;5111572;28;20232;-61
2021/12/31 12:41:02;;;;;;;6.20;4.27;;;11.30;99.90;;;;;;5109011;28;20189;-61
2021/12/31 12:43:32;;;;;;;8.63;5.53;;;11.30;99.90;;;;;;5111180;28;20283;-62
2021/12/31 12:46:02;;;;;;;12.93;6.77;;;11.30;99.90;;;;;;5089293;28;20541;-61
2021/12/31 12:48:34;;;;;;;7.83;5.50;;;11.30;99.90;;;;;;5092664;28;20206;-61
2021/12/31 12:51:03;;;;;;;9.37;5.63;;;11.30;99.90;;;;;;5105073;28;20664;-62
2021/12/31 12:53:31;;;;;;;5.03;3.70;;;11.30;99.90;;;;;;5104259;28;20586;-60
2021/12/31 12:56:10;;;;;;;8.63;5.70;;;11.30;99.90;;;;;;5098651;28;20199;-61
2021/12/31 12:58:40;;;;;;;10.20;6.47;;;11.30;99.90;;;;;;5090217;28;20235;-62
2021/12/31 13:01:10;;;;;;;8.83;5.47;;;11.30;99.90;;;;;;5099531;28;20200;-60